sensor_id;sensor_type;location;lat;lon;timestamp;P1;durP1;ratioP1;P2;durP2;ratioP2
38785;SDS011;24535;45.508;12.252;2022-09-27T00:00:37;4.28;;;3.88;;
38785;SDS011;24535;45.508;12.252;2022-09-27T00:03:09;5.07;;;4.57;;
38785;SDS011;24535;45.508;12.252;2022-09-27T00:05:35;5.63;;;4.20;;
38785;SDS011;24535;45.508;12.252;2022-09-27T00:08:01;2.72;;;2.30;;
38785;SDS011;24535;45.508;12.252;2022-09-27T00:10:27;5.00;;;4.55;;
38785;SDS011;24535;45.508;12.252;2022-09-27T00:12:53;3.97;;;3.42;;
38785;SDS011;24535;45.508;12.252;2022-09-27T00:15:22;6.00;;;4.60;;
38785;SDS011;24535;45.508;12.252;2022-09-27T00:17:47;6.80;;;5.70;;
38785;SDS011;24535;45.508;12.252;2022-09-27T00:20:16;6.35;;;5.22;;
38785;SDS011;24535;45.508;12.252;2022-09-27T00:22:42;7.07;;;6.38;;
38785;SDS011;24535;45.508;12.252;2022-09-27T00:25:08;5.78;;;5.18;;
38785;SDS011;24535;45.508;12.252;2022-09-27T00:27:33;5.75;;;4.53;;
38785;SDS011;24535;45.508;12.252;2022-09-27T00:29:59;5.97;;;5.03;;
38785;SDS011;24535;45.508;12.252;2022-09-27T00:32:24;7.18;;;5.50;;
38785;SDS011;24535;45.508;12.252;2022-09-27T00:34:50;6.28;;;5.07;;
38785;SDS011;24535;45.508;12.252;2022-09-27T00:37:15;5.85;;;5.22;;
38785;SDS011;24535;45.508;12.252;2022-09-27T00:39:40;6.70;;;5.55;;
38785;SDS011;24535;45.508;12.252;2022-09-27T00:42:10;5.72;;;4.63;;
38785;SDS011;24535;45.508;12.252;2022-09-27T00:47:08;4.63;;;4.18;;
38785;SDS011;24535;45.508;12.252;2022-09-27T00:49:45;4.57;;;3.80;;
38785;SDS011;24535;45.508;12.252;2022-09-27T00:52:16;4.50;;;4.10;;
38785;SDS011;24535;45.508;12.252;2022-09-27T00:54:47;4.00;;;3.58;;
38785;SDS011;24535;45.508;12.252;2022-09-27T00:57:17;3.45;;;3.15;;
38785;SDS011;24535;45.508;12.252;2022-09-27T00:59:49;4.25;;;3.03;;
38785;SDS011;24535;45.508;12.252;2022-09-27T01:02:24;3.72;;;3.20;;
38785;SDS011;24535;45.508;12.252;2022-09-27T01:04:52;4.35;;;3.03;;
38785;SDS011;24535;45.508;12.252;2022-09-27T01:07:19;3.58;;;2.75;;
38785;SDS011;24535;45.508;12.252;2022-09-27T01:09:46;3.83;;;2.67;;
38785;SDS011;24535;45.508;12.252;2022-09-27T01:12:57;3.58;;;3.28;;
38785;SDS011;24535;45.508;12.252;2022-09-27T01:15:33;3.30;;;2.75;;
38785;SDS011;24535;45.508;12.252;2022-09-27T01:18:19;2.95;;;2.35;;
38785;SDS011;24535;45.508;12.252;2022-09-27T01:24:09;6.68;;;3.55;;
38785;SDS011;24535;45.508;12.252;2022-09-27T01:29:11;3.50;;;3.17;;
38785;SDS011;24535;45.508;12.252;2022-09-27T01:40:32;2.95;;;2.63;;
38785;SDS011;24535;45.508;12.252;2022-09-27T01:45:37;6.20;;;4.50;;
38785;SDS011;24535;45.508;12.252;2022-09-27T01:48:20;4.03;;;3.58;;
38785;SDS011;24535;45.508;12.252;2022-09-27T01:51:15;3.97;;;3.42;;
38785;SDS011;24535;45.508;12.252;2022-09-27T01:53:47;3.45;;;3.08;;
38785;SDS011;24535;45.508;12.252;2022-09-27T01:59:35;3.63;;;3.33;;
38785;SDS011;24535;45.508;12.252;2022-09-27T02:02:07;5.47;;;4.97;;
38785;SDS011;24535;45.508;12.252;2022-09-27T02:07:21;5.13;;;4.30;;
38785;SDS011;24535;45.508;12.252;2022-09-27T02:10:00;4.60;;;3.97;;
38785;SDS011;24535;45.508;12.252;2022-09-27T02:12:41;4.00;;;3.60;;
38785;SDS011;24535;45.508;12.252;2022-09-27T02:15:34;4.20;;;3.83;;
38785;SDS011;24535;45.508;12.252;2022-09-27T02:18:24;7.93;;;3.75;;
38785;SDS011;24535;45.508;12.252;2022-09-27T02:20:55;3.85;;;3.45;;
38785;SDS011;24535;45.508;12.252;2022-09-27T02:28:59;4.50;;;4.10;;
38785;SDS011;24535;45.508;12.252;2022-09-27T02:31:31;4.88;;;3.63;;
38785;SDS011;24535;45.508;12.252;2022-09-27T02:34:08;4.72;;;4.22;;
38785;SDS011;24535;45.508;12.252;2022-09-27T02:36:42;5.13;;;4.25;;
38785;SDS011;24535;45.508;12.252;2022-09-27T02:39:08;5.05;;;4.50;;
38785;SDS011;24535;45.508;12.252;2022-09-27T02:41:34;6.05;;;5.40;;
38785;SDS011;24535;45.508;12.252;2022-09-27T02:44:04;5.57;;;4.50;;
38785;SDS011;24535;45.508;12.252;2022-09-27T02:46:58;5.95;;;5.28;;
38785;SDS011;24535;45.508;12.252;2022-09-27T02:49:43;8.35;;;4.95;;
38785;SDS011;24535;45.508;12.252;2022-09-27T03:01:37;8.25;;;5.13;;
38785;SDS011;24535;45.508;12.252;2022-09-27T03:06:45;5.55;;;5.05;;
38785;SDS011;24535;45.508;12.252;2022-09-27T03:09:40;3.70;;;3.33;;
38785;SDS011;24535;45.508;12.252;2022-09-27T03:12:09;2.50;;;1.88;;
38785;SDS011;24535;45.508;12.252;2022-09-27T03:14:35;6.68;;;6.07;;
38785;SDS011;24535;45.508;12.252;2022-09-27T03:17:01;7.30;;;6.10;;
38785;SDS011;24535;45.508;12.252;2022-09-27T03:19:26;6.78;;;6.18;;
38785;SDS011;24535;45.508;12.252;2022-09-27T03:21:52;6.70;;;5.60;;
38785;SDS011;24535;45.508;12.252;2022-09-27T03:24:17;7.20;;;6.20;;
38785;SDS011;24535;45.508;12.252;2022-09-27T03:26:43;7.82;;;7.03;;
38785;SDS011;24535;45.508;12.252;2022-09-27T03:29:08;6.65;;;6.05;;
38785;SDS011;24535;45.508;12.252;2022-09-27T03:31:34;6.78;;;6.13;;
38785;SDS011;24535;45.508;12.252;2022-09-27T03:33:59;6.53;;;5.93;;
38785;SDS011;24535;45.508;12.252;2022-09-27T03:36:25;6.97;;;6.30;;
38785;SDS011;24535;45.508;12.252;2022-09-27T03:38:56;6.70;;;6.03;;
38785;SDS011;24535;45.508;12.252;2022-09-27T03:41:21;7.68;;;6.85;;
38785;SDS011;24535;45.508;12.252;2022-09-27T03:43:49;6.32;;;5.72;;
38785;SDS011;24535;45.508;12.252;2022-09-27T03:46:15;6.97;;;6.27;;
38785;SDS011;24535;45.508;12.252;2022-09-27T03:48:41;9.00;;;6.85;;
38785;SDS011;24535;45.508;12.252;2022-09-27T03:51:06;4.82;;;4.40;;
38785;SDS011;24535;45.508;12.252;2022-09-27T03:53:32;7.10;;;6.40;;
38785;SDS011;24535;45.508;12.252;2022-09-27T03:55:58;7.03;;;6.30;;
38785;SDS011;24535;45.508;12.252;2022-09-27T03:58:30;8.07;;;5.85;;
38785;SDS011;24535;45.508;12.252;2022-09-27T04:00:55;7.45;;;6.60;;
38785;SDS011;24535;45.508;12.252;2022-09-27T04:03:21;8.18;;;6.18;;
38785;SDS011;24535;45.508;12.252;2022-09-27T04:05:46;7.68;;;6.90;;
38785;SDS011;24535;45.508;12.252;2022-09-27T04:08:12;7.13;;;6.43;;
38785;SDS011;24535;45.508;12.252;2022-09-27T04:10:37;7.95;;;6.45;;
38785;SDS011;24535;45.508;12.252;2022-09-27T04:13:09;6.40;;;5.80;;
38785;SDS011;24535;45.508;12.252;2022-09-27T04:15:35;9.35;;;6.40;;
38785;SDS011;24535;45.508;12.252;2022-09-27T04:18:03;6.93;;;6.07;;
38785;SDS011;24535;45.508;12.252;2022-09-27T04:20:29;5.40;;;4.90;;
38785;SDS011;24535;45.508;12.252;2022-09-27T04:22:58;7.78;;;6.07;;
38785;SDS011;24535;45.508;12.252;2022-09-27T04:25:23;5.88;;;5.30;;
38785;SDS011;24535;45.508;12.252;2022-09-27T04:27:48;8.65;;;6.50;;
38785;SDS011;24535;45.508;12.252;2022-09-27T04:30:19;7.72;;;5.53;;
38785;SDS011;24535;45.508;12.252;2022-09-27T04:32:46;6.90;;;6.15;;
38785;SDS011;24535;45.508;12.252;2022-09-27T04:35:12;6.65;;;5.95;;
38785;SDS011;24535;45.508;12.252;2022-09-27T04:37:56;5.72;;;5.20;;
38785;SDS011;24535;45.508;12.252;2022-09-27T04:40:26;5.20;;;4.75;;
38785;SDS011;24535;45.508;12.252;2022-09-27T04:43:00;5.25;;;4.50;;
38785;SDS011;24535;45.508;12.252;2022-09-27T04:45:27;7.60;;;6.32;;
38785;SDS011;24535;45.508;12.252;2022-09-27T04:47:53;8.40;;;7.30;;
38785;SDS011;24535;45.508;12.252;2022-09-27T04:50:18;8.20;;;6.40;;
38785;SDS011;24535;45.508;12.252;2022-09-27T04:52:48;6.72;;;5.63;;
38785;SDS011;24535;45.508;12.252;2022-09-27T04:55:16;6.72;;;5.97;;
38785;SDS011;24535;45.508;12.252;2022-09-27T04:57:41;6.45;;;5.82;;
38785;SDS011;24535;45.508;12.252;2022-09-27T05:00:07;5.45;;;4.95;;
38785;SDS011;24535;45.508;12.252;2022-09-27T05:02:33;6.82;;;5.40;;
38785;SDS011;24535;45.508;12.252;2022-09-27T05:04:59;6.60;;;5.07;;
38785;SDS011;24535;45.508;12.252;2022-09-27T05:07:28;4.63;;;3.70;;
38785;SDS011;24535;45.508;12.252;2022-09-27T05:09:56;5.60;;;4.32;;
38785;SDS011;24535;45.508;12.252;2022-09-27T05:12:21;6.03;;;4.03;;
38785;SDS011;24535;45.508;12.252;2022-09-27T05:14:47;6.88;;;4.75;;
38785;SDS011;24535;45.508;12.252;2022-09-27T05:17:12;4.18;;;3.63;;
38785;SDS011;24535;45.508;12.252;2022-09-27T05:19:38;4.82;;;3.65;;
38785;SDS011;24535;45.508;12.252;2022-09-27T05:22:04;5.45;;;3.75;;
38785;SDS011;24535;45.508;12.252;2022-09-27T05:24:30;4.65;;;3.67;;
38785;SDS011;24535;45.508;12.252;2022-09-27T05:26:57;3.55;;;3.25;;
38785;SDS011;24535;45.508;12.252;2022-09-27T05:29:23;3.85;;;2.78;;
38785;SDS011;24535;45.508;12.252;2022-09-27T05:31:49;4.13;;;2.53;;
38785;SDS011;24535;45.508;12.252;2022-09-27T05:34:14;2.80;;;2.42;;
38785;SDS011;24535;45.508;12.252;2022-09-27T05:36:40;2.67;;;2.45;;
38785;SDS011;24535;45.508;12.252;2022-09-27T05:39:06;3.25;;;2.72;;
38785;SDS011;24535;45.508;12.252;2022-09-27T05:41:31;3.17;;;2.15;;
38785;SDS011;24535;45.508;12.252;2022-09-27T05:43:57;2.80;;;2.50;;
38785;SDS011;24535;45.508;12.252;2022-09-27T05:46:23;4.07;;;2.40;;
38785;SDS011;24535;45.508;12.252;2022-09-27T05:48:49;4.80;;;1.75;;
38785;SDS011;24535;45.508;12.252;2022-09-27T05:51:14;3.58;;;2.50;;
38785;SDS011;24535;45.508;12.252;2022-09-27T05:53:40;2.72;;;2.13;;
38785;SDS011;24535;45.508;12.252;2022-09-27T05:56:06;3.53;;;1.40;;
38785;SDS011;24535;45.508;12.252;2022-09-27T05:58:31;1.40;;;1.27;;
38785;SDS011;24535;45.508;12.252;2022-09-27T06:00:58;2.75;;;2.08;;
38785;SDS011;24535;45.508;12.252;2022-09-27T06:03:24;2.00;;;1.80;;
38785;SDS011;24535;45.508;12.252;2022-09-27T06:05:49;4.35;;;1.70;;
38785;SDS011;24535;45.508;12.252;2022-09-27T06:08:15;2.20;;;1.75;;
38785;SDS011;24535;45.508;12.252;2022-09-27T06:10:40;2.63;;;1.98;;
38785;SDS011;24535;45.508;12.252;2022-09-27T06:13:07;2.28;;;1.52;;
38785;SDS011;24535;45.508;12.252;2022-09-27T06:18:05;2.72;;;1.00;;
38785;SDS011;24535;45.508;12.252;2022-09-27T06:20:33;1.95;;;1.13;;
38785;SDS011;24535;45.508;12.252;2022-09-27T06:23:19;1.55;;;1.08;;
38785;SDS011;24535;45.508;12.252;2022-09-27T06:25:47;1.52;;;1.10;;
38785;SDS011;24535;45.508;12.252;2022-09-27T06:28:13;2.35;;;1.75;;
38785;SDS011;24535;45.508;12.252;2022-09-27T06:30:40;2.38;;;1.27;;
38785;SDS011;24535;45.508;12.252;2022-09-27T06:33:16;1.27;;;1.10;;
38785;SDS011;24535;45.508;12.252;2022-09-27T06:35:43;1.85;;;1.23;;
38785;SDS011;24535;45.508;12.252;2022-09-27T06:38:14;1.65;;;1.42;;
38785;SDS011;24535;45.508;12.252;2022-09-27T06:40:41;3.42;;;0.98;;
38785;SDS011;24535;45.508;12.252;2022-09-27T06:43:14;2.72;;;1.67;;
38785;SDS011;24535;45.508;12.252;2022-09-27T06:45:41;2.33;;;1.90;;
38785;SDS011;24535;45.508;12.252;2022-09-27T06:48:08;2.55;;;2.17;;
38785;SDS011;24535;45.508;12.252;2022-09-27T06:50:37;1.77;;;1.52;;
38785;SDS011;24535;45.508;12.252;2022-09-27T06:53:04;1.13;;;0.98;;
38785;SDS011;24535;45.508;12.252;2022-09-27T06:55:31;5.22;;;1.90;;
38785;SDS011;24535;45.508;12.252;2022-09-27T06:57:57;2.85;;;1.98;;
38785;SDS011;24535;45.508;12.252;2022-09-27T07:00:43;6.28;;;2.03;;
38785;SDS011;24535;45.508;12.252;2022-09-27T07:03:11;1.88;;;1.50;;
38785;SDS011;24535;45.508;12.252;2022-09-27T07:05:38;2.40;;;2.13;;
38785;SDS011;24535;45.508;12.252;2022-09-27T07:08:05;4.20;;;2.38;;
38785;SDS011;24535;45.508;12.252;2022-09-27T07:10:36;2.50;;;2.15;;
38785;SDS011;24535;45.508;12.252;2022-09-27T07:13:03;3.40;;;2.50;;
38785;SDS011;24535;45.508;12.252;2022-09-27T07:15:33;2.58;;;2.08;;
38785;SDS011;24535;45.508;12.252;2022-09-27T07:18:04;3.42;;;2.85;;
38785;SDS011;24535;45.508;12.252;2022-09-27T07:20:30;1.60;;;1.45;;
38785;SDS011;24535;45.508;12.252;2022-09-27T07:22:57;2.67;;;1.85;;
38785;SDS011;24535;45.508;12.252;2022-09-27T07:25:23;3.13;;;2.60;;
38785;SDS011;24535;45.508;12.252;2022-09-27T07:27:49;2.53;;;1.95;;
38785;SDS011;24535;45.508;12.252;2022-09-27T07:30:17;4.25;;;2.47;;
38785;SDS011;24535;45.508;12.252;2022-09-27T07:32:43;4.65;;;3.22;;
38785;SDS011;24535;45.508;12.252;2022-09-27T07:35:09;3.53;;;2.50;;
38785;SDS011;24535;45.508;12.252;2022-09-27T07:37:36;2.85;;;2.33;;
38785;SDS011;24535;45.508;12.252;2022-09-27T07:40:47;2.30;;;2.10;;
38785;SDS011;24535;45.508;12.252;2022-09-27T07:43:13;2.90;;;1.73;;
38785;SDS011;24535;45.508;12.252;2022-09-27T07:45:38;2.40;;;1.75;;
38785;SDS011;24535;45.508;12.252;2022-09-27T07:48:07;4.82;;;2.92;;
38785;SDS011;24535;45.508;12.252;2022-09-27T07:50:51;6.00;;;3.33;;
38785;SDS011;24535;45.508;12.252;2022-09-27T07:53:16;5.05;;;3.47;;
38785;SDS011;24535;45.508;12.252;2022-09-27T07:55:51;3.85;;;2.50;;
38785;SDS011;24535;45.508;12.252;2022-09-27T07:59:11;7.25;;;5.47;;
38785;SDS011;24535;45.508;12.252;2022-09-27T08:01:42;7.97;;;4.47;;
38785;SDS011;24535;45.508;12.252;2022-09-27T08:04:10;5.68;;;4.75;;
38785;SDS011;24535;45.508;12.252;2022-09-27T08:06:36;6.40;;;2.95;;
38785;SDS011;24535;45.508;12.252;2022-09-27T08:09:04;4.43;;;2.47;;
38785;SDS011;24535;45.508;12.252;2022-09-27T08:11:30;3.95;;;1.48;;
38785;SDS011;24535;45.508;12.252;2022-09-27T08:13:59;2.67;;;1.60;;
38785;SDS011;24535;45.508;12.252;2022-09-27T08:16:25;3.08;;;1.75;;
38785;SDS011;24535;45.508;12.252;2022-09-27T08:18:50;2.17;;;1.70;;
38785;SDS011;24535;45.508;12.252;2022-09-27T08:21:16;2.15;;;1.33;;
38785;SDS011;24535;45.508;12.252;2022-09-27T08:23:42;4.82;;;1.52;;
38785;SDS011;24535;45.508;12.252;2022-09-27T08:26:07;2.20;;;1.30;;
38785;SDS011;24535;45.508;12.252;2022-09-27T08:28:32;2.20;;;1.58;;
38785;SDS011;24535;45.508;12.252;2022-09-27T08:30:58;2.25;;;1.50;;
38785;SDS011;24535;45.508;12.252;2022-09-27T08:33:25;1.80;;;1.52;;
38785;SDS011;24535;45.508;12.252;2022-09-27T08:35:51;2.78;;;1.40;;
38785;SDS011;24535;45.508;12.252;2022-09-27T08:38:19;2.03;;;1.40;;
38785;SDS011;24535;45.508;12.252;2022-09-27T08:43:38;2.70;;;1.30;;
38785;SDS011;24535;45.508;12.252;2022-09-27T08:49:13;1.20;;;0.93;;
38785;SDS011;24535;45.508;12.252;2022-09-27T08:51:56;3.90;;;1.20;;
38785;SDS011;24535;45.508;12.252;2022-09-27T08:54:31;1.10;;;0.88;;
38785;SDS011;24535;45.508;12.252;2022-09-27T08:57:04;2.60;;;1.23;;
38785;SDS011;24535;45.508;12.252;2022-09-27T08:59:39;2.38;;;1.40;;
38785;SDS011;24535;45.508;12.252;2022-09-27T09:02:13;3.83;;;1.10;;
38785;SDS011;24535;45.508;12.252;2022-09-27T09:04:43;2.15;;;0.90;;
38785;SDS011;24535;45.508;12.252;2022-09-27T09:07:36;1.50;;;0.88;;
38785;SDS011;24535;45.508;12.252;2022-09-27T09:12:56;1.20;;;0.90;;
38785;SDS011;24535;45.508;12.252;2022-09-27T09:15:37;1.98;;;0.95;;
38785;SDS011;24535;45.508;12.252;2022-09-27T09:21:30;1.50;;;1.00;;
38785;SDS011;24535;45.508;12.252;2022-09-27T09:34:46;2.05;;;1.17;;
38785;SDS011;24535;45.508;12.252;2022-09-27T09:37:20;1.98;;;1.13;;
38785;SDS011;24535;45.508;12.252;2022-09-27T09:40:07;1.63;;;1.08;;
38785;SDS011;24535;45.508;12.252;2022-09-27T09:45:43;1.55;;;0.60;;
38785;SDS011;24535;45.508;12.252;2022-09-27T09:48:23;2.50;;;0.70;;
38785;SDS011;24535;45.508;12.252;2022-09-27T09:51:22;1.73;;;0.98;;
38785;SDS011;24535;45.508;12.252;2022-09-27T09:54:05;2.10;;;0.70;;
38785;SDS011;24535;45.508;12.252;2022-09-27T09:56:43;1.80;;;0.70;;
38785;SDS011;24535;45.508;12.252;2022-09-27T09:59:17;2.80;;;1.13;;
38785;SDS011;24535;45.508;12.252;2022-09-27T10:04:20;4.05;;;1.25;;
38785;SDS011;24535;45.508;12.252;2022-09-27T10:06:59;2.15;;;0.60;;
38785;SDS011;24535;45.508;12.252;2022-09-27T10:09:25;1.73;;;1.10;;
38785;SDS011;24535;45.508;12.252;2022-09-27T10:11:52;3.58;;;1.30;;
38785;SDS011;24535;45.508;12.252;2022-09-27T10:14:30;2.25;;;1.10;;
38785;SDS011;24535;45.508;12.252;2022-09-27T10:16:58;2.97;;;1.35;;
38785;SDS011;24535;45.508;12.252;2022-09-27T10:19:35;1.80;;;1.05;;
38785;SDS011;24535;45.508;12.252;2022-09-27T10:24:52;1.00;;;0.60;;
38785;SDS011;24535;45.508;12.252;2022-09-27T10:27:18;1.58;;;0.75;;
38785;SDS011;24535;45.508;12.252;2022-09-27T10:29:43;0.98;;;0.73;;
38785;SDS011;24535;45.508;12.252;2022-09-27T10:35:19;3.13;;;1.70;;
38785;SDS011;24535;45.508;12.252;2022-09-27T10:40:27;6.15;;;1.92;;
38785;SDS011;24535;45.508;12.252;2022-09-27T10:42:54;4.82;;;1.73;;
38785;SDS011;24535;45.508;12.252;2022-09-27T10:45:30;3.00;;;2.45;;
38785;SDS011;24535;45.508;12.252;2022-09-27T10:48:00;2.97;;;1.50;;
38785;SDS011;24535;45.508;12.252;2022-09-27T10:50:27;1.63;;;0.90;;
38785;SDS011;24535;45.508;12.252;2022-09-27T10:53:14;7.85;;;2.80;;
38785;SDS011;24535;45.508;12.252;2022-09-27T10:55:50;4.78;;;2.22;;
38785;SDS011;24535;45.508;12.252;2022-09-27T10:58:35;3.30;;;2.10;;
38785;SDS011;24535;45.508;12.252;2022-09-27T11:01:09;5.70;;;2.72;;
38785;SDS011;24535;45.508;12.252;2022-09-27T11:03:37;2.50;;;1.85;;
38785;SDS011;24535;45.508;12.252;2022-09-27T11:06:18;2.17;;;1.40;;
38785;SDS011;24535;45.508;12.252;2022-09-27T11:08:44;3.22;;;1.40;;
38785;SDS011;24535;45.508;12.252;2022-09-27T11:13:38;3.33;;;1.50;;
38785;SDS011;24535;45.508;12.252;2022-09-27T11:16:22;2.78;;;1.30;;
38785;SDS011;24535;45.508;12.252;2022-09-27T11:21:57;2.08;;;1.40;;
38785;SDS011;24535;45.508;12.252;2022-09-27T11:30:19;2.65;;;1.02;;
38785;SDS011;24535;45.508;12.252;2022-09-27T11:46:47;4.38;;;2.35;;
38785;SDS011;24535;45.508;12.252;2022-09-27T11:49:36;3.83;;;2.47;;
38785;SDS011;24535;45.508;12.252;2022-09-27T11:52:26;4.35;;;2.22;;
38785;SDS011;24535;45.508;12.252;2022-09-27T12:00:34;2.30;;;2.00;;
38785;SDS011;24535;45.508;12.252;2022-09-27T12:05:59;6.78;;;4.07;;
38785;SDS011;24535;45.508;12.252;2022-09-27T12:11:25;4.20;;;2.00;;
38785;SDS011;24535;45.508;12.252;2022-09-27T12:16:26;5.25;;;2.30;;
38785;SDS011;24535;45.508;12.252;2022-09-27T12:18:55;4.97;;;2.38;;
38785;SDS011;24535;45.508;12.252;2022-09-27T12:21:26;2.75;;;1.98;;
38785;SDS011;24535;45.508;12.252;2022-09-27T12:27:07;7.47;;;4.03;;
38785;SDS011;24535;45.508;12.252;2022-09-27T12:29:42;8.48;;;3.38;;
38785;SDS011;24535;45.508;12.252;2022-09-27T12:32:29;4.40;;;2.97;;
38785;SDS011;24535;45.508;12.252;2022-09-27T12:35:04;8.18;;;3.70;;
38785;SDS011;24535;45.508;12.252;2022-09-27T12:41:04;5.07;;;3.75;;
38785;SDS011;24535;45.508;12.252;2022-09-27T12:43:35;5.05;;;3.08;;
38785;SDS011;24535;45.508;12.252;2022-09-27T13:08:33;5.60;;;3.90;;
38785;SDS011;24535;45.508;12.252;2022-09-27T13:17:30;4.55;;;3.05;;
38785;SDS011;24535;45.508;12.252;2022-09-27T13:25:55;7.07;;;4.72;;
38785;SDS011;24535;45.508;12.252;2022-09-27T13:33:51;10.82;;;4.00;;
38785;SDS011;24535;45.508;12.252;2022-09-27T13:45:12;10.48;;;4.00;;
38785;SDS011;24535;45.508;12.252;2022-09-27T13:47:46;5.25;;;4.10;;
38785;SDS011;24535;45.508;12.252;2022-09-27T13:50:24;7.88;;;4.25;;
38785;SDS011;24535;45.508;12.252;2022-09-27T13:53:07;5.10;;;4.35;;
38785;SDS011;24535;45.508;12.252;2022-09-27T13:55:55;5.50;;;4.00;;
38785;SDS011;24535;45.508;12.252;2022-09-27T14:06:56;4.25;;;3.17;;
38785;SDS011;24535;45.508;12.252;2022-09-27T14:09:46;9.80;;;5.10;;
38785;SDS011;24535;45.508;12.252;2022-09-27T14:14:37;8.30;;;4.82;;
38785;SDS011;24535;45.508;12.252;2022-09-27T14:17:11;8.00;;;4.22;;
38785;SDS011;24535;45.508;12.252;2022-09-27T14:19:41;5.18;;;3.85;;
38785;SDS011;24535;45.508;12.252;2022-09-27T14:24:46;5.95;;;4.32;;
38785;SDS011;24535;45.508;12.252;2022-09-27T14:27:20;4.95;;;3.47;;
38785;SDS011;24535;45.508;12.252;2022-09-27T14:32:30;8.07;;;4.18;;
38785;SDS011;24535;45.508;12.252;2022-09-27T14:35:05;4.47;;;3.28;;
38785;SDS011;24535;45.508;12.252;2022-09-27T14:37:54;4.93;;;3.40;;
38785;SDS011;24535;45.508;12.252;2022-09-27T14:46:01;3.88;;;3.45;;
38785;SDS011;24535;45.508;12.252;2022-09-27T14:48:32;5.70;;;3.85;;
38785;SDS011;24535;45.508;12.252;2022-09-27T14:53:44;4.35;;;3.70;;
38785;SDS011;24535;45.508;12.252;2022-09-27T14:56:14;5.88;;;3.38;;
38785;SDS011;24535;45.508;12.252;2022-09-27T15:07:40;6.38;;;2.80;;
38785;SDS011;24535;45.508;12.252;2022-09-27T15:10:10;6.95;;;2.17;;
38785;SDS011;24535;45.508;12.252;2022-09-27T15:12:53;3.97;;;2.60;;
38785;SDS011;24535;45.508;12.252;2022-09-27T15:15:24;5.20;;;2.97;;
38785;SDS011;24535;45.508;12.252;2022-09-27T15:17:55;3.75;;;2.70;;
38785;SDS011;24535;45.508;12.252;2022-09-27T15:20:23;6.70;;;2.55;;
38785;SDS011;24535;45.508;12.252;2022-09-27T15:22:57;8.82;;;2.55;;
38785;SDS011;24535;45.508;12.252;2022-09-27T15:33:18;5.20;;;2.10;;
38785;SDS011;24535;45.508;12.252;2022-09-27T15:35:56;6.00;;;3.38;;
38785;SDS011;24535;45.508;12.252;2022-09-27T15:45:57;5.63;;;2.75;;
38785;SDS011;24535;45.508;12.252;2022-09-27T15:48:39;6.22;;;2.40;;
38785;SDS011;24535;45.508;12.252;2022-09-27T15:51:37;8.13;;;3.22;;
38785;SDS011;24535;45.508;12.252;2022-09-27T15:54:06;5.53;;;2.70;;
38785;SDS011;24535;45.508;12.252;2022-09-27T15:56:32;2.33;;;1.92;;
38785;SDS011;24535;45.508;12.252;2022-09-27T15:59:05;6.40;;;4.63;;
38785;SDS011;24535;45.508;12.252;2022-09-27T16:01:53;10.98;;;5.72;;
38785;SDS011;24535;45.508;12.252;2022-09-27T16:04:24;20.67;;;14.00;;
38785;SDS011;24535;45.508;12.252;2022-09-27T16:07:00;15.43;;;11.48;;
38785;SDS011;24535;45.508;12.252;2022-09-27T16:12:11;7.97;;;3.92;;
38785;SDS011;24535;45.508;12.252;2022-09-27T16:17:25;4.78;;;2.67;;
38785;SDS011;24535;45.508;12.252;2022-09-27T16:22:58;5.25;;;2.67;;
38785;SDS011;24535;45.508;12.252;2022-09-27T16:25:36;4.28;;;2.40;;
38785;SDS011;24535;45.508;12.252;2022-09-27T16:28:02;6.68;;;2.42;;
38785;SDS011;24535;45.508;12.252;2022-09-27T16:30:29;4.50;;;2.20;;
38785;SDS011;24535;45.508;12.252;2022-09-27T16:32:57;6.10;;;2.38;;
38785;SDS011;24535;45.508;12.252;2022-09-27T16:37:53;6.90;;;2.25;;
38785;SDS011;24535;45.508;12.252;2022-09-27T16:40:19;4.13;;;2.30;;
38785;SDS011;24535;45.508;12.252;2022-09-27T16:42:48;3.50;;;1.92;;
38785;SDS011;24535;45.508;12.252;2022-09-27T16:48:16;3.47;;;2.08;;
38785;SDS011;24535;45.508;12.252;2022-09-27T16:50:47;8.20;;;1.88;;
38785;SDS011;24535;45.508;12.252;2022-09-27T17:02:23;1.50;;;0.55;;
38785;SDS011;24535;45.508;12.252;2022-09-27T17:04:49;1.20;;;0.60;;
38785;SDS011;24535;45.508;12.252;2022-09-27T17:10:37;1.67;;;0.88;;
38785;SDS011;24535;45.508;12.252;2022-09-27T17:13:13;1.77;;;0.73;;
38785;SDS011;24535;45.508;12.252;2022-09-27T17:15:44;8.63;;;1.23;;
38785;SDS011;24535;45.508;12.252;2022-09-27T17:18:10;3.63;;;0.98;;
38785;SDS011;24535;45.508;12.252;2022-09-27T17:20:37;2.30;;;1.27;;
38785;SDS011;24535;45.508;12.252;2022-09-27T17:23:02;3.17;;;1.30;;
38785;SDS011;24535;45.508;12.252;2022-09-27T17:25:37;2.92;;;1.02;;
38785;SDS011;24535;45.508;12.252;2022-09-27T17:28:02;3.40;;;1.17;;
38785;SDS011;24535;45.508;12.252;2022-09-27T17:30:44;3.13;;;1.38;;
38785;SDS011;24535;45.508;12.252;2022-09-27T17:33:15;2.47;;;0.98;;
38785;SDS011;24535;45.508;12.252;2022-09-27T17:35:56;1.83;;;0.98;;
38785;SDS011;24535;45.508;12.252;2022-09-27T17:38:23;2.33;;;0.80;;
38785;SDS011;24535;45.508;12.252;2022-09-27T17:40:57;2.88;;;0.95;;
38785;SDS011;24535;45.508;12.252;2022-09-27T17:43:24;1.60;;;0.73;;
38785;SDS011;24535;45.508;12.252;2022-09-27T17:45:49;4.20;;;0.57;;
38785;SDS011;24535;45.508;12.252;2022-09-27T17:48:15;4.85;;;1.17;;
38785;SDS011;24535;45.508;12.252;2022-09-27T17:53:38;1.10;;;0.57;;
38785;SDS011;24535;45.508;12.252;2022-09-27T17:56:07;1.80;;;0.50;;
38785;SDS011;24535;45.508;12.252;2022-09-27T18:01:45;1.27;;;0.50;;
38785;SDS011;24535;45.508;12.252;2022-09-27T18:07:26;1.08;;;0.40;;
38785;SDS011;24535;45.508;12.252;2022-09-27T18:09:53;1.27;;;0.30;;
38785;SDS011;24535;45.508;12.252;2022-09-27T18:12:22;3.67;;;0.82;;
38785;SDS011;24535;45.508;12.252;2022-09-27T18:14:55;2.50;;;0.65;;
38785;SDS011;24535;45.508;12.252;2022-09-27T18:17:32;2.78;;;0.30;;
38785;SDS011;24535;45.508;12.252;2022-09-27T18:20:00;0.40;;;0.30;;
38785;SDS011;24535;45.508;12.252;2022-09-27T18:22:27;2.10;;;0.30;;
38785;SDS011;24535;45.508;12.252;2022-09-27T18:24:55;0.83;;;0.30;;
38785;SDS011;24535;45.508;12.252;2022-09-27T18:30:39;1.10;;;0.40;;
38785;SDS011;24535;45.508;12.252;2022-09-27T18:33:05;1.05;;;0.20;;
38785;SDS011;24535;45.508;12.252;2022-09-27T18:35:33;1.02;;;0.32;;
38785;SDS011;24535;45.508;12.252;2022-09-27T18:37:59;0.67;;;0.30;;
38785;SDS011;24535;45.508;12.252;2022-09-27T18:45:25;1.42;;;0.47;;
38785;SDS011;24535;45.508;12.252;2022-09-27T18:51:19;2.55;;;1.20;;
38785;SDS011;24535;45.508;12.252;2022-09-27T18:53:54;0.60;;;0.40;;
38785;SDS011;24535;45.508;12.252;2022-09-27T18:58:55;0.98;;;0.57;;
38785;SDS011;24535;45.508;12.252;2022-09-27T19:01:24;0.75;;;0.60;;
38785;SDS011;24535;45.508;12.252;2022-09-27T19:03:49;4.72;;;0.45;;
38785;SDS011;24535;45.508;12.252;2022-09-27T19:06:17;2.90;;;0.60;;
38785;SDS011;24535;45.508;12.252;2022-09-27T19:08:44;4.53;;;1.08;;
38785;SDS011;24535;45.508;12.252;2022-09-27T19:14:32;3.30;;;1.33;;
38785;SDS011;24535;45.508;12.252;2022-09-27T19:16:59;1.70;;;0.77;;
38785;SDS011;24535;45.508;12.252;2022-09-27T19:19:25;7.10;;;1.52;;
38785;SDS011;24535;45.508;12.252;2022-09-27T19:21:54;5.55;;;1.15;;
38785;SDS011;24535;45.508;12.252;2022-09-27T19:24:23;3.83;;;1.63;;
38785;SDS011;24535;45.508;12.252;2022-09-27T19:26:49;5.60;;;1.42;;
38785;SDS011;24535;45.508;12.252;2022-09-27T19:29:18;3.17;;;1.63;;
38785;SDS011;24535;45.508;12.252;2022-09-27T19:31:47;3.85;;;1.10;;
38785;SDS011;24535;45.508;12.252;2022-09-27T19:34:12;4.25;;;1.58;;